createdAt,value
2022-12-16T00:06:42.724Z,0.03
2022-12-16T00:09:32.371Z,0.02
2022-12-16T00:19:32.887Z,0.03
2022-12-16T00:26:55.657Z,0.02
2022-12-16T00:53:36.753Z,0.03
2022-12-16T00:58:26.452Z,0.02
2022-12-16T01:00:30.244Z,0.03
2022-12-16T01:03:22.711Z,0.02
2022-12-16T02:20:03.878Z,0.03
2022-12-16T02:25:07.821Z,0.02
2022-12-16T02:35:33.833Z,0.03
2022-12-16T02:42:44.871Z,0.02
2022-12-16T02:52:52.041Z,0.03
2022-12-16T02:58:04.912Z,0.02
2022-12-16T03:07:46.326Z,0.03
2022-12-16T03:12:14.951Z,0.02
2022-12-16T03:15:10.585Z,0.03
2022-12-16T03:17:52.400Z,0.02
2022-12-16T03:47:01.525Z,0.03
2022-12-16T03:49:28.285Z,0.02
2022-12-16T04:16:31.059Z,0.03
2022-12-16T04:19:16.445Z,0.02
2022-12-16T04:26:07.539Z,0.03
2022-12-16T04:41:49.661Z,0.02
2022-12-16T04:44:19.027Z,0.03
2022-12-16T05:30:45.961Z,0.02
2022-12-16T05:32:43.433Z,0.03
2022-12-16T05:52:27.954Z,0.04
2022-12-16T05:55:30.558Z,0.05
2022-12-16T05:58:10.406Z,0.04
2022-12-16T06:00:40.517Z,0.05
2022-12-16T06:07:48.915Z,0.03
2022-12-16T06:10:25.421Z,0.04
2022-12-16T06:12:47.654Z,0.06
2022-12-16T06:14:55.741Z,0.05
2022-12-16T06:25:17.856Z,0.06
2022-12-16T06:27:17.823Z,0.07
2022-12-16T06:30:06.906Z,0.09
2022-12-16T06:32:41.846Z,0.11
2022-12-16T06:35:02.816Z,0.15
2022-12-16T06:37:09.545Z,0.19
2022-12-16T06:40:04.889Z,0.29
2022-12-16T06:42:46.086Z,0.39
2022-12-16T06:45:12.732Z,0.58
2022-12-16T06:47:24.755Z,0.86
2022-12-16T06:49:23.288Z,1.19
2022-12-16T06:52:10.286Z,1.94
2022-12-16T06:54:42.956Z,2.85
2022-12-16T06:57:01.573Z,3.9
2022-12-16T06:59:06.249Z,5.7
2022-12-16T07:01:59.429Z,8.67
2022-12-16T07:04:38.265Z,11.87
2022-12-16T07:07:03.318Z,15.79
2022-12-16T07:09:14.110Z,19.46
2022-12-16T07:12:13.587Z,27.15
2022-12-16T07:14:59.022Z,33.71
2022-12-16T07:17:30.203Z,41.12
2022-12-16T07:19:47.220Z,49.42
2022-12-16T07:21:50.238Z,56.78
2022-12-16T07:24:41.767Z,68.72
2022-12-16T07:27:18.964Z,79.66
2022-12-16T07:29:42.080Z,91.6
2022-12-16T07:31:51.299Z,104.08
2022-12-16T07:34:50.357Z,120.04
2022-12-16T07:37:32.295Z,135.12
2022-12-16T07:40:01.394Z,150.08
2022-12-16T07:42:16.537Z,167.2
2022-12-16T07:44:17.570Z,181.4
2022-12-16T07:47:07.310Z,204.4
2022-12-16T07:49:42.863Z,221.6
2022-12-16T07:52:04.185Z,234.6
2022-12-16T07:54:11.501Z,243.9
2022-12-16T07:57:07.381Z,265.1
2022-12-16T07:59:49.091Z,288.1
2022-12-16T08:02:16.689Z,300.2
2022-12-16T08:04:30.165Z,308.7
2022-12-16T08:06:29.451Z,320.4
2022-12-16T08:09:17.396Z,356.6
2022-12-16T08:11:51.286Z,419.2
2022-12-16T08:14:10.972Z,477.6
2022-12-16T08:16:16.531Z,525.6
2022-12-16T08:19:11.332Z,527.3
2022-12-16T08:21:50.913Z,510.8
2022-12-16T08:24:16.760Z,457.2
2022-12-16T08:26:28.550Z,453.9
2022-12-16T08:28:26.188Z,448
2022-12-16T08:31:11.986Z,542.4
2022-12-16T08:33:43.841Z,657.2
2022-12-16T08:36:01.844Z,723.5
2022-12-16T08:38:10.483Z,772.8
2022-12-16T08:40:57.790Z,802.2
2022-12-16T08:43:36.397Z,733.7
2022-12-16T08:46:00.279Z,656.3
2022-12-16T08:48:10.118Z,600.6
2022-12-16T08:51:08.778Z,543.5
2022-12-16T08:53:53.181Z,524.1
2022-12-16T08:56:23.363Z,513.6
2022-12-16T08:58:39.360Z,526.5
2022-12-16T09:00:41.293Z,548.6
2022-12-16T09:03:32.158Z,587.8
2022-12-16T09:06:08.041Z,732.1
2022-12-16T09:08:30.327Z,822.7
2022-12-16T09:10:40.479Z,985.2
2022-12-16T09:13:35.749Z,1075.8
2022-12-16T09:16:19.721Z,1136
2022-12-16T09:18:46.393Z,1179.8
2022-12-16T09:21:00.662Z,1193.9
2022-12-16T09:23:00.656Z,1213.1
2022-12-16T09:25:49.403Z,1240.3
2022-12-16T09:28:23.907Z,1256.3
2022-12-16T09:30:44.216Z,1271.6
2022-12-16T09:32:50.426Z,1288.3
2022-12-16T09:35:45.222Z,1312
2022-12-16T09:38:26.350Z,1323.5
2022-12-16T09:40:52.595Z,1331.2
2022-12-16T09:43:05.123Z,1301.1
2022-12-16T09:45:03.686Z,1363.2
2022-12-16T09:47:50.544Z,1374
2022-12-16T09:50:23.433Z,1411.2
2022-12-16T09:52:42.026Z,1410.5
2022-12-16T09:54:46.670Z,1415.6
2022-12-16T09:57:39.746Z,1409.9
2022-12-16T10:00:18.815Z,1354.8
2022-12-16T10:02:43.758Z,1356.1
2022-12-16T10:04:54.380Z,1468.8
2022-12-16T10:07:53.660Z,1478.4
2022-12-16T10:10:38.795Z,1462.4
2022-12-16T10:13:09.869Z,1416.3
2022-12-16T10:15:26.232Z,1239.3
2022-12-16T10:17:28.807Z,1423.3
2022-12-16T10:20:20.181Z,1505.2
2022-12-16T10:22:57.416Z,1447.6
2022-12-16T10:25:24.717Z,1461.7
2022-12-16T10:27:29.336Z,1352.9
2022-12-16T10:30:26.764Z,1294.7
2022-12-16T10:33:10.035Z,1580.8
2022-12-16T10:35:39.094Z,1537.2
2022-12-16T10:37:54.238Z,1510.4
2022-12-16T10:39:55.073Z,1530.2
2022-12-16T10:42:44.479Z,1658
2022-12-16T10:45:20.027Z,1667
2022-12-16T10:47:41.338Z,1674
2022-12-16T10:49:53.762Z,1602.5
2022-12-16T10:52:44.374Z,1692
2022-12-16T10:55:25.999Z,1720
2022-12-16T10:57:53.437Z,1722
2022-12-16T11:00:06.592Z,1721
2022-12-16T11:02:05.929Z,1717
2022-12-16T11:04:54.290Z,1722
2022-12-16T11:07:26.928Z,1694
2022-12-16T11:09:46.625Z,1697
2022-12-16T11:11:51.930Z,1672
2022-12-16T11:17:25.849Z,1659
2022-12-16T11:19:51.569Z,2009
2022-12-16T11:22:03.141Z,1658
2022-12-16T11:24:00.741Z,1651
2022-12-16T11:26:46.781Z,1628.1
2022-12-16T11:29:18.676Z,1615.3
2022-12-16T11:31:36.410Z,1603.8
2022-12-16T11:33:40.071Z,1594.2
2022-12-16T11:36:32.163Z,1575
2022-12-16T11:39:10.096Z,1559
2022-12-16T11:41:34.097Z,1552
2022-12-16T11:43:43.907Z,1544.3
2022-12-16T11:46:42.299Z,1539.2
2022-12-16T11:49:26.577Z,1531.5
2022-12-16T11:52:03.840Z,1536
2022-12-16T11:54:12.686Z,1594.2
2022-12-16T11:56:16.458Z,1523.8
2022-12-16T11:59:04.679Z,1520.6
2022-12-16T12:01:45.148Z,1517.4
2022-12-16T12:04:02.948Z,1511
2022-12-16T12:06:10.938Z,1516.8
2022-12-16T12:09:07.532Z,1510.4
2022-12-16T12:11:49.892Z,1502.7
2022-12-16T12:14:18.214Z,1457.9
2022-12-16T12:16:32.506Z,1484.8
2022-12-16T12:18:32.550Z,1484.1
2022-12-16T12:21:21.092Z,1472
2022-12-16T12:23:55.594Z,1466.8
2022-12-16T12:26:15.876Z,1466.2
2022-12-16T12:28:22.228Z,1450.2
2022-12-16T12:31:17.103Z,1453.4
2022-12-16T12:33:57.737Z,1438.7
2022-12-16T12:36:24.159Z,1444.4
2022-12-16T12:38:36.953Z,1425.9
2022-12-16T12:40:34.849Z,1420.8
2022-12-16T12:43:21.685Z,1414.4
2022-12-16T12:45:54.436Z,1397.7
2022-12-16T12:48:13.056Z,1379.2
2022-12-16T12:50:17.060Z,1358
2022-12-16T12:53:10.156Z,1343.3
2022-12-16T12:55:49.050Z,1333.1
2022-12-16T12:58:13.767Z,1313.9
2022-12-16T13:00:24.547Z,1301.1
2022-12-16T13:03:23.905Z,1288.3
2022-12-16T13:06:08.878Z,1273.6
2022-12-16T13:08:39.688Z,1256.6
2022-12-16T13:10:56.744Z,1236.8
2022-12-16T13:12:59.240Z,1229.7
2022-12-16T13:15:50.415Z,1212.4
2022-12-16T13:18:27.594Z,1207
2022-12-16T13:20:50.628Z,1191.3
2022-12-16T13:22:59.436Z,1178.8
2022-12-16T13:25:57.003Z,1170.2
2022-12-16T13:28:40.337Z,1159
2022-12-16T13:31:09.528Z,1138.5
2022-12-16T13:33:24.420Z,1128.9
2022-12-16T13:35:25.311Z,1104.6
2022-12-16T13:38:14.783Z,1084.8
2022-12-16T13:40:50.081Z,1055
2022-12-16T13:43:10.985Z,1049.6
2022-12-16T13:45:18.090Z,1034.5
2022-12-16T13:48:13.654Z,1010.5
2022-12-16T13:50:55.305Z,985.9
2022-12-16T13:53:22.720Z,967.3
2022-12-16T13:55:35.917Z,946.8
2022-12-16T13:57:35.133Z,914.5
2022-12-16T14:00:22.840Z,892.8
2022-12-16T14:02:37.404Z,862.4
2022-12-16T14:04:37.484Z,843.5
2022-12-16T14:07:26.194Z,810.2
2022-12-16T14:10:01.060Z,790.7
2022-12-16T14:12:21.606Z,748.4
2022-12-16T14:14:27.993Z,700.8
2022-12-16T14:17:23.137Z,593.2
2022-12-16T14:20:04.062Z,516
2022-12-16T14:22:30.762Z,490.2
2022-12-16T14:24:43.514Z,466.7
2022-12-16T14:26:42.053Z,442.2
2022-12-16T14:29:29.055Z,460.9
2022-12-16T14:32:01.938Z,488
2022-12-16T14:34:20.365Z,491.5
2022-12-16T14:36:25.060Z,478.4
2022-12-16T14:39:18.278Z,463.2
2022-12-16T14:41:57.607Z,452
2022-12-16T14:44:22.615Z,420.3
2022-12-16T14:46:33.505Z,392.3
2022-12-16T14:49:33.015Z,358.8
2022-12-16T14:52:18.364Z,325.9
2022-12-16T14:54:49.504Z,297.3
2022-12-16T14:57:06.449Z,275.7
2022-12-16T14:59:09.411Z,253.8
2022-12-16T15:02:01.045Z,222.6
2022-12-16T15:04:38.274Z,195.1
2022-12-16T15:07:01.518Z,172.8
2022-12-16T15:09:10.659Z,154.28
2022-12-16T15:12:08.369Z,126
2022-12-16T15:14:52.067Z,105.6
2022-12-16T15:17:21.618Z,91.04
2022-12-16T15:19:36.948Z,79.92
2022-12-16T15:21:38.363Z,69.6
2022-12-16T15:24:28.255Z,55.86
2022-12-16T15:27:03.451Z,45.7
2022-12-16T15:29:24.840Z,36.6
2022-12-16T15:31:32.329Z,28.84
2022-12-16T15:34:28.210Z,21.14
2022-12-16T15:37:09.899Z,16
2022-12-16T15:39:37.643Z,11.88
2022-12-16T15:41:51.210Z,8.62
2022-12-16T15:43:53.733Z,6.66
2022-12-16T15:46:38.703Z,4.71
2022-12-16T15:49:12.469Z,3.1
2022-12-16T15:51:32.026Z,2.34
2022-12-16T15:53:37.731Z,1.63
2022-12-16T15:56:32.033Z,1.05
2022-12-16T15:59:12.006Z,0.76
2022-12-16T16:01:37.940Z,0.56
2022-12-16T16:03:49.750Z,0.45
2022-12-16T16:05:47.285Z,0.38
2022-12-16T16:08:33.567Z,0.3
2022-12-16T16:11:05.815Z,0.26
2022-12-16T16:13:23.820Z,0.22
2022-12-16T16:15:27.612Z,0.23
2022-12-16T16:20:58.072Z,0.18
2022-12-16T16:23:22.337Z,0.16
2022-12-16T16:25:32.300Z,0.17
2022-12-16T16:28:30.937Z,0.16
2022-12-16T16:33:45.667Z,0.19
2022-12-16T16:36:01.811Z,0.21
2022-12-16T16:40:54.456Z,0.23
2022-12-16T16:43:31.246Z,0.19
2022-12-16T16:45:53.475Z,0.2
2022-12-16T16:48:01.618Z,0.24
2022-12-16T16:50:58.629Z,0.21
2022-12-16T16:53:41.332Z,0.15
2022-12-16T16:56:12.653Z,0.13
2022-12-16T16:58:24.104Z,0.17
2022-12-16T17:00:24.454Z,0.15
2022-12-16T17:03:13.514Z,0.12
2022-12-16T17:05:47.971Z,0.1
2022-12-16T17:08:08.614Z,0.09
2022-12-16T17:10:14.622Z,0.1
2022-12-16T17:18:17.155Z,0.09
2022-12-16T17:20:29.646Z,0.1
2022-12-16T17:27:48.141Z,0.09
2022-12-16T17:37:43.998Z,0.1
2022-12-16T17:45:19.083Z,0.11
2022-12-16T17:48:04.386Z,0.1
2022-12-16T17:50:35.567Z,0.09
2022-12-16T17:54:55.539Z,0.08
2022-12-16T17:57:47.013Z,0.1
2022-12-16T18:00:24.270Z,0.09
2022-12-16T18:02:46.989Z,0.13
2022-12-16T18:04:55.958Z,0.14
2022-12-16T18:07:53.345Z,0.15
2022-12-16T18:10:36.814Z,0.13
2022-12-16T18:13:06.002Z,0.12
2022-12-16T18:15:21.240Z,0.13
2022-12-16T18:17:22.389Z,0.12
2022-12-16T18:37:34.702Z,0.13
2022-12-16T18:39:34.117Z,0.12
2022-12-16T18:59:31.470Z,0.09
2022-12-16T19:04:15.038Z,0.1
2022-12-16T19:06:46.924Z,0.09
2022-12-16T19:09:04.769Z,0.05
2022-12-16T19:11:08.436Z,0.06
2022-12-16T19:19:02.551Z,0.05
2022-12-16T19:29:25.197Z,0.07
2022-12-16T19:31:41.066Z,0.05
2022-12-16T20:08:47.465Z,0.07
2022-12-16T20:11:28.235Z,0.08
2022-12-16T20:13:55.982Z,0.06
2022-12-16T20:18:06.170Z,0.05
2022-12-16T20:20:53.412Z,0.06
2022-12-16T20:23:26.325Z,0.05
2022-12-16T20:37:57.379Z,0.06
2022-12-16T20:43:42.228Z,0.05
2022-12-16T20:56:01.731Z,0.06
2022-12-16T21:03:31.854Z,0.07
2022-12-16T21:06:15.327Z,0.08
2022-12-16T21:08:44.589Z,0.05
2022-12-16T21:13:05.076Z,0.06
2022-12-16T21:15:50.380Z,0.07
2022-12-16T21:18:26.052Z,0.06
2022-12-16T21:20:47.498Z,0.08
2022-12-16T21:22:54.709Z,0.04
2022-12-16T21:25:50.823Z,0.05
2022-12-16T21:28:32.663Z,0.04
2022-12-16T21:33:13.334Z,0.03
2022-12-16T21:44:59.650Z,0.06
2022-12-16T21:47:53.613Z,0.05
2022-12-16T21:50:33.566Z,0.04
2022-12-16T21:59:56.314Z,0.03
2022-12-16T22:12:18.908Z,0.02
2022-12-16T22:14:42.770Z,0.03
2022-12-16T22:32:12.930Z,0.02
2022-12-16T22:44:58.469Z,0.03
2022-12-16T22:49:41.309Z,0.02
2022-12-16T22:54:30.060Z,0.03
2022-12-16T22:57:04.633Z,0.02
2022-12-16T23:09:33.276Z,0.03
2022-12-16T23:11:45.857Z,0.02
2022-12-16T23:19:03.450Z,0.03
2022-12-16T23:23:26.459Z,0.02
2022-12-16T23:54:00.789Z,0.03
2022-12-16T23:56:09.729Z,0.02
2022-12-16T23:59:07.471Z,0.05
